Athens, IN (46912)

11:17 AM EST on November 26, 2014 (GMT -0500)
4th Street | Change Station
CLOSE
Current Station
Personal Weather Station
Location: Rochester, IN
Elevation: 781 ft
Nearby Weather Stations

Elev 781 ft 41.07 °N, 86.20 °W | Updated 1 minute ago

Mostly Cloudy
Mostly Cloudy
25.7 °F
Feels Like 18 °F
N
7.0
Wind Variable Wind from ESE
Gusts 19.0 mph

Today
High -- | Low -- °F
--% Chance of Precip.
Yesterday
High -- | Low -- °F
Precip. -- in
7:44 AM 5:18 PM
Waxing Crescent, 20% visible
Pressure 30.15 in
Visibility 10.0 miles
Clouds Scattered Clouds 800 ft
Scattered Clouds 1200 ft
Mostly Cloudy 2200 ft
Windchill 18 °F
Dew Point 18 °F
Humidity 73%
Rainfall 0.00 in
Snow Depth Not available.
UV 1 out of 12
Pollen .10 out of 12
Air Quality Not available.
Flu Activity Not available.
METAR KRCR 261555Z AUTO 11008KT 10SM SCT008 SCT012 BKN022 M01/M05 A3015 RMK AO2

More Conditions Fewer Conditions

Pressure 30.15 in
Visibility 10.0 miles
Clouds Scattered Clouds 800 ft
Scattered Clouds 1200 ft
Mostly Cloudy 2200 ft
Windchill 18 °F
Dew Point 18 °F
Humidity 73%
Rainfall 0.00 in
Snow Depth Not available.
UV 1 out of 12
Pollen .10 out of 12
Air Quality Not available.
Flu Activity Not available.
METAR KRCR 261555Z AUTO 11008KT 10SM SCT008 SCT012 BKN022 M01/M05 A3015 RMK AO2

More Conditions Fewer Conditions

10-Day Weather Forecast

Almanac

Astronomy

Nov. 26, 2014 Rise Set
Actual Time
Civil Twilight
Nautical Twilight
Astronomical Twilight
Moon
Length of Visible Light
Length of Day
Tomorrow will be .
, % of the Moon is Illuminated

Today's Extremes

State Highs State Lows

Community

WunderPhotos

Upload Photos

1,773,780 photos uploaded!

WunderBlogs® & News

Nearby

Air Quality

  Air Quality AQ Index Pollutant
Not available.

Snow Depth

Station Depth Elevation

Earthquake Activity

City Distance Mag. Time & Date
Minimum magnitude displayed is 2.5.

Coastal Water Temperatures

Place Temperature

Nearby Weather Stations